sensor_id;sensor_type;location;lat;lon;timestamp;P1;durP1;ratioP1;P2;durP2;ratioP2
66487;SDS011;53304;54.550;18.526;2023-05-29T00:01:56;5.50;;;2.30;;
66487;SDS011;53304;54.550;18.526;2023-05-29T00:04:22;6.07;;;2.38;;
66487;SDS011;53304;54.550;18.526;2023-05-29T00:06:51;6.13;;;2.50;;
66487;SDS011;53304;54.550;18.526;2023-05-29T00:09:17;5.55;;;2.33;;
66487;SDS011;53304;54.550;18.526;2023-05-29T00:11:45;6.85;;;2.80;;
66487;SDS011;53304;54.550;18.526;2023-05-29T00:14:15;5.60;;;2.60;;
66487;SDS011;53304;54.550;18.526;2023-05-29T00:16:44;6.40;;;2.78;;
66487;SDS011;53304;54.550;18.526;2023-05-29T00:19:14;6.03;;;2.35;;
66487;SDS011;53304;54.550;18.526;2023-05-29T00:21:42;5.43;;;2.25;;
66487;SDS011;53304;54.550;18.526;2023-05-29T00:24:16;7.22;;;2.67;;
66487;SDS011;53304;54.550;18.526;2023-05-29T00:26:42;6.80;;;2.53;;
66487;SDS011;53304;54.550;18.526;2023-05-29T00:29:10;6.07;;;2.63;;
66487;SDS011;53304;54.550;18.526;2023-05-29T00:31:36;5.35;;;2.60;;
66487;SDS011;53304;54.550;18.526;2023-05-29T00:34:05;6.88;;;2.70;;
66487;SDS011;53304;54.550;18.526;2023-05-29T00:36:30;7.32;;;2.97;;
66487;SDS011;53304;54.550;18.526;2023-05-29T00:38:56;5.00;;;2.40;;
66487;SDS011;53304;54.550;18.526;2023-05-29T00:41:22;5.95;;;2.67;;
66487;SDS011;53304;54.550;18.526;2023-05-29T00:43:49;5.97;;;2.40;;
66487;SDS011;53304;54.550;18.526;2023-05-29T00:46:17;4.97;;;2.17;;
66487;SDS011;53304;54.550;18.526;2023-05-29T00:48:45;5.13;;;2.55;;
66487;SDS011;53304;54.550;18.526;2023-05-29T00:51:13;5.95;;;2.50;;
66487;SDS011;53304;54.550;18.526;2023-05-29T00:53:41;7.65;;;2.47;;
66487;SDS011;53304;54.550;18.526;2023-05-29T00:56:08;6.45;;;2.58;;
66487;SDS011;53304;54.550;18.526;2023-05-29T00:58:34;4.63;;;2.10;;
66487;SDS011;53304;54.550;18.526;2023-05-29T01:03:56;6.03;;;2.47;;
66487;SDS011;53304;54.550;18.526;2023-05-29T01:06:22;9.50;;;2.80;;
66487;SDS011;53304;54.550;18.526;2023-05-29T01:08:48;4.40;;;2.63;;
66487;SDS011;53304;54.550;18.526;2023-05-29T01:13:42;6.10;;;2.45;;
66487;SDS011;53304;54.550;18.526;2023-05-29T01:22:13;6.85;;;2.45;;
66487;SDS011;53304;54.550;18.526;2023-05-29T01:25:01;6.43;;;2.50;;
66487;SDS011;53304;54.550;18.526;2023-05-29T01:27:35;6.10;;;2.30;;
66487;SDS011;53304;54.550;18.526;2023-05-29T01:30:01;6.97;;;2.80;;
66487;SDS011;53304;54.550;18.526;2023-05-29T01:32:30;6.35;;;2.53;;
66487;SDS011;53304;54.550;18.526;2023-05-29T01:34:55;6.60;;;2.20;;
66487;SDS011;53304;54.550;18.526;2023-05-29T01:37:21;5.72;;;2.55;;
66487;SDS011;53304;54.550;18.526;2023-05-29T01:39:46;5.13;;;2.22;;
66487;SDS011;53304;54.550;18.526;2023-05-29T01:42:12;5.90;;;2.60;;
66487;SDS011;53304;54.550;18.526;2023-05-29T01:44:40;6.65;;;2.63;;
66487;SDS011;53304;54.550;18.526;2023-05-29T01:47:05;4.47;;;2.35;;
66487;SDS011;53304;54.550;18.526;2023-05-29T01:49:31;5.53;;;2.38;;
66487;SDS011;53304;54.550;18.526;2023-05-29T01:51:56;5.22;;;2.10;;
66487;SDS011;53304;54.550;18.526;2023-05-29T01:54:25;4.50;;;2.08;;
66487;SDS011;53304;54.550;18.526;2023-05-29T01:56:51;5.22;;;2.28;;
66487;SDS011;53304;54.550;18.526;2023-05-29T01:59:18;4.53;;;2.20;;
66487;SDS011;53304;54.550;18.526;2023-05-29T02:01:47;4.80;;;2.10;;
66487;SDS011;53304;54.550;18.526;2023-05-29T02:04:12;5.70;;;2.40;;
66487;SDS011;53304;54.550;18.526;2023-05-29T02:06:38;4.30;;;2.15;;
66487;SDS011;53304;54.550;18.526;2023-05-29T02:09:03;7.47;;;2.30;;
66487;SDS011;53304;54.550;18.526;2023-05-29T02:11:29;4.53;;;2.38;;
66487;SDS011;53304;54.550;18.526;2023-05-29T02:13:54;5.63;;;2.28;;
66487;SDS011;53304;54.550;18.526;2023-05-29T02:16:20;5.07;;;2.20;;
66487;SDS011;53304;54.550;18.526;2023-05-29T02:18:46;8.43;;;2.60;;
66487;SDS011;53304;54.550;18.526;2023-05-29T02:21:17;5.72;;;2.45;;
66487;SDS011;53304;54.550;18.526;2023-05-29T02:23:45;8.10;;;2.47;;
66487;SDS011;53304;54.550;18.526;2023-05-29T02:26:12;4.28;;;2.40;;
66487;SDS011;53304;54.550;18.526;2023-05-29T02:28:39;5.85;;;2.22;;
66487;SDS011;53304;54.550;18.526;2023-05-29T02:31:05;6.50;;;2.53;;
66487;SDS011;53304;54.550;18.526;2023-05-29T02:33:30;8.35;;;2.53;;
66487;SDS011;53304;54.550;18.526;2023-05-29T02:35:56;5.35;;;2.28;;
66487;SDS011;53304;54.550;18.526;2023-05-29T02:38:23;6.00;;;2.53;;
66487;SDS011;53304;54.550;18.526;2023-05-29T02:40:49;7.50;;;2.65;;
66487;SDS011;53304;54.550;18.526;2023-05-29T02:43:18;5.00;;;2.25;;
66487;SDS011;53304;54.550;18.526;2023-05-29T02:45:46;8.02;;;2.53;;
66487;SDS011;53304;54.550;18.526;2023-05-29T02:48:12;6.10;;;2.50;;
66487;SDS011;53304;54.550;18.526;2023-05-29T02:50:37;8.73;;;2.47;;
66487;SDS011;53304;54.550;18.526;2023-05-29T02:53:05;5.55;;;2.22;;
66487;SDS011;53304;54.550;18.526;2023-05-29T02:55:34;5.50;;;2.10;;
66487;SDS011;53304;54.550;18.526;2023-05-29T02:58:03;4.97;;;2.35;;
66487;SDS011;53304;54.550;18.526;2023-05-29T03:00:29;6.57;;;2.17;;
66487;SDS011;53304;54.550;18.526;2023-05-29T03:03:02;4.90;;;2.40;;
66487;SDS011;53304;54.550;18.526;2023-05-29T03:05:30;4.45;;;2.00;;
66487;SDS011;53304;54.550;18.526;2023-05-29T03:07:58;5.85;;;2.10;;
66487;SDS011;53304;54.550;18.526;2023-05-29T03:10:23;6.63;;;2.30;;
66487;SDS011;53304;54.550;18.526;2023-05-29T03:12:48;6.72;;;2.38;;
66487;SDS011;53304;54.550;18.526;2023-05-29T03:15:16;7.57;;;2.05;;
66487;SDS011;53304;54.550;18.526;2023-05-29T03:17:45;5.97;;;2.22;;
66487;SDS011;53304;54.550;18.526;2023-05-29T03:20:13;6.97;;;2.42;;
66487;SDS011;53304;54.550;18.526;2023-05-29T03:22:40;7.13;;;2.65;;
66487;SDS011;53304;54.550;18.526;2023-05-29T03:25:06;5.28;;;2.22;;
66487;SDS011;53304;54.550;18.526;2023-05-29T03:27:34;6.78;;;2.10;;
66487;SDS011;53304;54.550;18.526;2023-05-29T03:30:02;5.80;;;2.42;;
66487;SDS011;53304;54.550;18.526;2023-05-29T03:32:30;4.78;;;2.30;;
66487;SDS011;53304;54.550;18.526;2023-05-29T03:34:58;8.95;;;2.20;;
66487;SDS011;53304;54.550;18.526;2023-05-29T03:37:28;4.65;;;2.00;;
66487;SDS011;53304;54.550;18.526;2023-05-29T03:39:56;5.75;;;2.40;;
66487;SDS011;53304;54.550;18.526;2023-05-29T03:42:21;4.97;;;2.00;;
66487;SDS011;53304;54.550;18.526;2023-05-29T03:44:47;5.65;;;2.30;;
66487;SDS011;53304;54.550;18.526;2023-05-29T03:47:12;5.90;;;2.20;;
66487;SDS011;53304;54.550;18.526;2023-05-29T03:49:37;5.93;;;1.92;;
66487;SDS011;53304;54.550;18.526;2023-05-29T03:52:07;5.22;;;2.20;;
66487;SDS011;53304;54.550;18.526;2023-05-29T03:54:38;6.93;;;2.20;;
66487;SDS011;53304;54.550;18.526;2023-05-29T03:57:06;6.45;;;2.53;;
66487;SDS011;53304;54.550;18.526;2023-05-29T03:59:34;5.10;;;1.95;;
66487;SDS011;53304;54.550;18.526;2023-05-29T04:02:01;6.50;;;2.17;;
66487;SDS011;53304;54.550;18.526;2023-05-29T04:04:27;5.50;;;2.10;;
66487;SDS011;53304;54.550;18.526;2023-05-29T04:06:58;4.45;;;2.08;;
66487;SDS011;53304;54.550;18.526;2023-05-29T04:09:23;5.68;;;2.33;;
66487;SDS011;53304;54.550;18.526;2023-05-29T04:11:51;6.97;;;2.30;;
66487;SDS011;53304;54.550;18.526;2023-05-29T04:14:17;7.03;;;2.45;;
66487;SDS011;53304;54.550;18.526;2023-05-29T04:16:45;6.60;;;2.08;;
66487;SDS011;53304;54.550;18.526;2023-05-29T04:19:12;5.40;;;2.20;;
66487;SDS011;53304;54.550;18.526;2023-05-29T04:21:38;4.75;;;2.20;;
66487;SDS011;53304;54.550;18.526;2023-05-29T04:24:06;9.05;;;2.58;;
66487;SDS011;53304;54.550;18.526;2023-05-29T04:26:34;6.45;;;2.38;;
66487;SDS011;53304;54.550;18.526;2023-05-29T04:28:59;7.20;;;2.47;;
66487;SDS011;53304;54.550;18.526;2023-05-29T04:31:27;5.00;;;1.95;;
66487;SDS011;53304;54.550;18.526;2023-05-29T04:33:53;12.07;;;2.28;;
66487;SDS011;53304;54.550;18.526;2023-05-29T04:36:27;8.25;;;2.20;;
66487;SDS011;53304;54.550;18.526;2023-05-29T04:38:53;5.68;;;2.15;;
66487;SDS011;53304;54.550;18.526;2023-05-29T04:41:22;5.80;;;1.88;;
66487;SDS011;53304;54.550;18.526;2023-05-29T04:43:50;5.72;;;2.33;;
66487;SDS011;53304;54.550;18.526;2023-05-29T04:46:20;4.40;;;2.03;;
66487;SDS011;53304;54.550;18.526;2023-05-29T04:48:49;5.70;;;2.00;;
66487;SDS011;53304;54.550;18.526;2023-05-29T04:51:18;5.28;;;2.20;;
66487;SDS011;53304;54.550;18.526;2023-05-29T04:53:47;5.90;;;1.95;;
66487;SDS011;53304;54.550;18.526;2023-05-29T04:56:16;6.35;;;2.20;;
66487;SDS011;53304;54.550;18.526;2023-05-29T04:58:42;6.28;;;1.90;;
66487;SDS011;53304;54.550;18.526;2023-05-29T05:01:08;5.15;;;2.28;;
66487;SDS011;53304;54.550;18.526;2023-05-29T05:03:34;6.90;;;2.08;;
66487;SDS011;53304;54.550;18.526;2023-05-29T05:06:00;6.70;;;2.00;;
66487;SDS011;53304;54.550;18.526;2023-05-29T05:08:27;6.00;;;1.80;;
66487;SDS011;53304;54.550;18.526;2023-05-29T05:10:57;5.53;;;2.10;;
66487;SDS011;53304;54.550;18.526;2023-05-29T05:13:28;8.77;;;1.98;;
66487;SDS011;53304;54.550;18.526;2023-05-29T05:15:53;5.10;;;2.35;;
66487;SDS011;53304;54.550;18.526;2023-05-29T05:18:19;7.30;;;2.20;;
66487;SDS011;53304;54.550;18.526;2023-05-29T05:20:45;4.68;;;2.05;;
66487;SDS011;53304;54.550;18.526;2023-05-29T05:23:13;6.03;;;2.17;;
66487;SDS011;53304;54.550;18.526;2023-05-29T05:25:43;11.00;;;2.80;;
66487;SDS011;53304;54.550;18.526;2023-05-29T05:28:11;12.38;;;2.75;;
66487;SDS011;53304;54.550;18.526;2023-05-29T05:30:36;27.20;;;3.42;;
66487;SDS011;53304;54.550;18.526;2023-05-29T05:33:01;16.58;;;3.30;;
66487;SDS011;53304;54.550;18.526;2023-05-29T05:35:29;19.75;;;3.72;;
66487;SDS011;53304;54.550;18.526;2023-05-29T05:37:58;11.93;;;2.63;;
66487;SDS011;53304;54.550;18.526;2023-05-29T05:40:24;8.25;;;2.10;;
66487;SDS011;53304;54.550;18.526;2023-05-29T05:42:52;9.65;;;2.40;;
66487;SDS011;53304;54.550;18.526;2023-05-29T05:45:25;12.50;;;2.80;;
66487;SDS011;53304;54.550;18.526;2023-05-29T05:47:50;11.13;;;2.38;;
66487;SDS011;53304;54.550;18.526;2023-05-29T05:50:20;9.85;;;2.13;;
66487;SDS011;53304;54.550;18.526;2023-05-29T05:52:46;6.78;;;2.50;;
66487;SDS011;53304;54.550;18.526;2023-05-29T05:55:11;7.82;;;2.45;;
66487;SDS011;53304;54.550;18.526;2023-05-29T05:57:39;5.68;;;1.90;;
66487;SDS011;53304;54.550;18.526;2023-05-29T06:00:05;4.93;;;1.75;;
66487;SDS011;53304;54.550;18.526;2023-05-29T06:02:39;6.28;;;2.20;;
66487;SDS011;53304;54.550;18.526;2023-05-29T06:05:08;6.25;;;1.90;;
66487;SDS011;53304;54.550;18.526;2023-05-29T06:07:34;6.63;;;2.10;;
66487;SDS011;53304;54.550;18.526;2023-05-29T06:10:00;6.65;;;2.00;;
66487;SDS011;53304;54.550;18.526;2023-05-29T06:12:28;6.47;;;1.83;;
66487;SDS011;53304;54.550;18.526;2023-05-29T06:14:56;8.35;;;2.33;;
66487;SDS011;53304;54.550;18.526;2023-05-29T06:17:22;6.32;;;1.95;;
66487;SDS011;53304;54.550;18.526;2023-05-29T06:19:48;5.93;;;2.05;;
66487;SDS011;53304;54.550;18.526;2023-05-29T06:22:16;4.95;;;2.05;;
66487;SDS011;53304;54.550;18.526;2023-05-29T06:24:44;8.52;;;2.00;;
66487;SDS011;53304;54.550;18.526;2023-05-29T06:27:10;5.55;;;1.85;;
66487;SDS011;53304;54.550;18.526;2023-05-29T06:29:38;7.65;;;2.00;;
66487;SDS011;53304;54.550;18.526;2023-05-29T06:32:08;8.15;;;1.77;;
66487;SDS011;53304;54.550;18.526;2023-05-29T06:34:35;3.28;;;1.50;;
66487;SDS011;53304;54.550;18.526;2023-05-29T06:37:01;7.82;;;1.88;;
66487;SDS011;53304;54.550;18.526;2023-05-29T06:39:29;10.15;;;2.40;;
66487;SDS011;53304;54.550;18.526;2023-05-29T06:41:56;8.93;;;2.20;;
66487;SDS011;53304;54.550;18.526;2023-05-29T06:44:24;13.63;;;2.80;;
66487;SDS011;53304;54.550;18.526;2023-05-29T06:46:50;10.02;;;2.13;;
66487;SDS011;53304;54.550;18.526;2023-05-29T06:49:15;13.50;;;2.47;;
66487;SDS011;53304;54.550;18.526;2023-05-29T06:51:40;13.75;;;3.10;;
66487;SDS011;53304;54.550;18.526;2023-05-29T06:54:06;9.45;;;2.60;;
66487;SDS011;53304;54.550;18.526;2023-05-29T06:56:31;8.20;;;2.30;;
66487;SDS011;53304;54.550;18.526;2023-05-29T06:58:59;6.75;;;2.08;;
66487;SDS011;53304;54.550;18.526;2023-05-29T07:01:25;7.03;;;2.55;;
66487;SDS011;53304;54.550;18.526;2023-05-29T07:03:56;8.45;;;2.00;;
66487;SDS011;53304;54.550;18.526;2023-05-29T07:06:21;7.32;;;2.10;;
66487;SDS011;53304;54.550;18.526;2023-05-29T07:08:49;4.22;;;1.70;;
66487;SDS011;53304;54.550;18.526;2023-05-29T07:11:14;6.40;;;1.88;;
66487;SDS011;53304;54.550;18.526;2023-05-29T07:13:42;5.40;;;1.73;;
66487;SDS011;53304;54.550;18.526;2023-05-29T07:16:07;5.28;;;1.67;;
66487;SDS011;53304;54.550;18.526;2023-05-29T07:18:32;4.13;;;1.60;;
66487;SDS011;53304;54.550;18.526;2023-05-29T07:20:59;6.72;;;1.50;;
66487;SDS011;53304;54.550;18.526;2023-05-29T07:23:27;4.50;;;1.75;;
66487;SDS011;53304;54.550;18.526;2023-05-29T07:25:53;5.35;;;1.55;;
66487;SDS011;53304;54.550;18.526;2023-05-29T07:28:20;5.22;;;1.40;;
66487;SDS011;53304;54.550;18.526;2023-05-29T07:30:48;7.15;;;1.55;;
66487;SDS011;53304;54.550;18.526;2023-05-29T07:33:16;5.95;;;1.70;;
66487;SDS011;53304;54.550;18.526;2023-05-29T07:35:41;3.70;;;1.30;;
66487;SDS011;53304;54.550;18.526;2023-05-29T07:38:14;4.10;;;1.40;;
66487;SDS011;53304;54.550;18.526;2023-05-29T07:40:40;4.60;;;1.23;;
66487;SDS011;53304;54.550;18.526;2023-05-29T07:43:07;4.50;;;1.52;;
66487;SDS011;53304;54.550;18.526;2023-05-29T07:45:38;5.00;;;1.40;;
66487;SDS011;53304;54.550;18.526;2023-05-29T07:48:03;6.45;;;1.55;;
66487;SDS011;53304;54.550;18.526;2023-05-29T07:50:29;5.47;;;1.40;;
66487;SDS011;53304;54.550;18.526;2023-05-29T07:52:56;6.13;;;1.50;;
66487;SDS011;53304;54.550;18.526;2023-05-29T07:55:22;4.40;;;1.20;;
66487;SDS011;53304;54.550;18.526;2023-05-29T07:57:49;3.13;;;1.27;;
66487;SDS011;53304;54.550;18.526;2023-05-29T08:00:15;4.85;;;1.38;;
66487;SDS011;53304;54.550;18.526;2023-05-29T08:02:44;4.63;;;1.40;;
66487;SDS011;53304;54.550;18.526;2023-05-29T08:05:09;5.22;;;1.50;;
66487;SDS011;53304;54.550;18.526;2023-05-29T08:07:35;6.60;;;1.30;;
66487;SDS011;53304;54.550;18.526;2023-05-29T08:10:01;7.47;;;1.50;;
66487;SDS011;53304;54.550;18.526;2023-05-29T08:12:30;3.50;;;1.30;;
66487;SDS011;53304;54.550;18.526;2023-05-29T08:15:00;3.92;;;1.20;;
66487;SDS011;53304;54.550;18.526;2023-05-29T08:17:25;4.13;;;1.40;;
66487;SDS011;53304;54.550;18.526;2023-05-29T08:19:51;5.57;;;1.33;;
66487;SDS011;53304;54.550;18.526;2023-05-29T08:22:18;2.88;;;1.20;;
66487;SDS011;53304;54.550;18.526;2023-05-29T08:24:44;4.85;;;1.52;;
66487;SDS011;53304;54.550;18.526;2023-05-29T08:27:09;3.58;;;1.30;;
66487;SDS011;53304;54.550;18.526;2023-05-29T08:29:35;3.08;;;1.20;;
66487;SDS011;53304;54.550;18.526;2023-05-29T08:32:03;5.50;;;1.50;;
66487;SDS011;53304;54.550;18.526;2023-05-29T08:34:29;4.43;;;1.52;;
66487;SDS011;53304;54.550;18.526;2023-05-29T08:36:58;4.68;;;1.25;;
66487;SDS011;53304;54.550;18.526;2023-05-29T08:39:26;6.65;;;1.60;;
66487;SDS011;53304;54.550;18.526;2023-05-29T08:44:22;4.00;;;1.60;;
66487;SDS011;53304;54.550;18.526;2023-05-29T08:46:50;3.47;;;1.20;;
66487;SDS011;53304;54.550;18.526;2023-05-29T08:49:20;7.15;;;1.50;;
66487;SDS011;53304;54.550;18.526;2023-05-29T08:51:49;6.13;;;1.55;;
66487;SDS011;53304;54.550;18.526;2023-05-29T08:54:25;4.93;;;1.40;;
66487;SDS011;53304;54.550;18.526;2023-05-29T08:56:53;4.88;;;1.17;;
66487;SDS011;53304;54.550;18.526;2023-05-29T08:59:22;5.70;;;1.15;;
66487;SDS011;53304;54.550;18.526;2023-05-29T09:01:50;10.43;;;1.70;;
66487;SDS011;53304;54.550;18.526;2023-05-29T09:04:15;4.72;;;1.20;;
66487;SDS011;53304;54.550;18.526;2023-05-29T09:06:41;4.50;;;1.20;;
66487;SDS011;53304;54.550;18.526;2023-05-29T09:09:08;4.90;;;1.50;;
66487;SDS011;53304;54.550;18.526;2023-05-29T09:11:35;5.13;;;1.58;;
66487;SDS011;53304;54.550;18.526;2023-05-29T09:14:01;2.38;;;0.90;;
66487;SDS011;53304;54.550;18.526;2023-05-29T09:16:32;3.65;;;1.35;;
66487;SDS011;53304;54.550;18.526;2023-05-29T09:19:06;2.83;;;1.10;;
66487;SDS011;53304;54.550;18.526;2023-05-29T09:21:34;2.00;;;0.80;;
66487;SDS011;53304;54.550;18.526;2023-05-29T09:24:03;4.00;;;1.25;;
66487;SDS011;53304;54.550;18.526;2023-05-29T09:26:30;3.67;;;0.90;;
66487;SDS011;53304;54.550;18.526;2023-05-29T09:28:58;2.42;;;0.95;;
66487;SDS011;53304;54.550;18.526;2023-05-29T09:31:26;2.47;;;0.80;;
66487;SDS011;53304;54.550;18.526;2023-05-29T09:33:54;3.47;;;0.90;;
66487;SDS011;53304;54.550;18.526;2023-05-29T09:36:22;3.70;;;1.00;;
66487;SDS011;53304;54.550;18.526;2023-05-29T09:38:47;1.90;;;0.80;;
66487;SDS011;53304;54.550;18.526;2023-05-29T09:41:13;3.30;;;1.17;;
66487;SDS011;53304;54.550;18.526;2023-05-29T09:43:40;3.13;;;0.93;;
66487;SDS011;53304;54.550;18.526;2023-05-29T09:46:12;2.70;;;0.98;;
66487;SDS011;53304;54.550;18.526;2023-05-29T09:48:43;3.60;;;1.13;;
66487;SDS011;53304;54.550;18.526;2023-05-29T09:51:21;3.55;;;1.20;;
66487;SDS011;53304;54.550;18.526;2023-05-29T09:53:49;6.20;;;1.23;;
66487;SDS011;53304;54.550;18.526;2023-05-29T09:56:18;2.40;;;1.00;;
66487;SDS011;53304;54.550;18.526;2023-05-29T09:58:50;3.38;;;1.15;;
66487;SDS011;53304;54.550;18.526;2023-05-29T10:01:16;3.47;;;1.20;;
66487;SDS011;53304;54.550;18.526;2023-05-29T10:03:45;2.70;;;1.00;;
66487;SDS011;53304;54.550;18.526;2023-05-29T10:06:11;5.55;;;1.15;;
66487;SDS011;53304;54.550;18.526;2023-05-29T10:08:47;4.78;;;1.35;;
66487;SDS011;53304;54.550;18.526;2023-05-29T10:11:14;2.65;;;1.10;;
66487;SDS011;53304;54.550;18.526;2023-05-29T10:13:42;3.08;;;1.13;;
66487;SDS011;53304;54.550;18.526;2023-05-29T10:16:13;4.43;;;1.33;;
66487;SDS011;53304;54.550;18.526;2023-05-29T10:18:42;3.50;;;1.13;;
66487;SDS011;53304;54.550;18.526;2023-05-29T10:21:10;6.63;;;1.50;;
66487;SDS011;53304;54.550;18.526;2023-05-29T10:23:37;5.53;;;1.52;;
66487;SDS011;53304;54.550;18.526;2023-05-29T10:26:14;4.95;;;1.40;;
66487;SDS011;53304;54.550;18.526;2023-05-29T10:28:44;5.50;;;1.77;;
66487;SDS011;53304;54.550;18.526;2023-05-29T10:31:18;2.60;;;1.52;;
66487;SDS011;53304;54.550;18.526;2023-05-29T10:36:30;4.93;;;1.60;;
66487;SDS011;53304;54.550;18.526;2023-05-29T10:39:00;5.85;;;1.25;;
66487;SDS011;53304;54.550;18.526;2023-05-29T10:41:31;4.88;;;1.45;;
66487;SDS011;53304;54.550;18.526;2023-05-29T10:49:21;5.63;;;1.45;;
66487;SDS011;53304;54.550;18.526;2023-05-29T10:51:47;5.90;;;1.35;;
66487;SDS011;53304;54.550;18.526;2023-05-29T10:54:13;3.45;;;1.10;;
66487;SDS011;53304;54.550;18.526;2023-05-29T10:56:39;5.53;;;1.40;;
66487;SDS011;53304;54.550;18.526;2023-05-29T10:59:09;4.90;;;1.40;;
66487;SDS011;53304;54.550;18.526;2023-05-29T11:01:34;6.40;;;1.30;;
66487;SDS011;53304;54.550;18.526;2023-05-29T11:06:51;3.50;;;1.35;;
66487;SDS011;53304;54.550;18.526;2023-05-29T11:09:36;5.30;;;1.40;;
66487;SDS011;53304;54.550;18.526;2023-05-29T11:14:46;3.75;;;1.15;;
66487;SDS011;53304;54.550;18.526;2023-05-29T11:17:30;3.30;;;1.00;;
66487;SDS011;53304;54.550;18.526;2023-05-29T11:20:03;2.80;;;1.00;;
66487;SDS011;53304;54.550;18.526;2023-05-29T11:23:14;4.20;;;1.30;;
66487;SDS011;53304;54.550;18.526;2023-05-29T11:25:27;2.22;;;1.08;;
66487;SDS011;53304;54.550;18.526;2023-05-29T11:27:58;3.47;;;1.20;;
66487;SDS011;53304;54.550;18.526;2023-05-29T11:30:23;3.75;;;1.08;;
66487;SDS011;53304;54.550;18.526;2023-05-29T11:32:49;5.57;;;1.30;;
66487;SDS011;53304;54.550;18.526;2023-05-29T11:35:22;5.55;;;1.23;;
66487;SDS011;53304;54.550;18.526;2023-05-29T11:37:50;6.50;;;1.40;;
66487;SDS011;53304;54.550;18.526;2023-05-29T11:40:18;3.92;;;1.30;;
66487;SDS011;53304;54.550;18.526;2023-05-29T11:42:44;4.95;;;1.52;;
66487;SDS011;53304;54.550;18.526;2023-05-29T11:45:14;5.18;;;1.52;;
66487;SDS011;53304;54.550;18.526;2023-05-29T11:47:56;5.03;;;1.55;;
66487;SDS011;53304;54.550;18.526;2023-05-29T11:50:26;3.03;;;1.00;;
66487;SDS011;53304;54.550;18.526;2023-05-29T11:52:55;4.15;;;1.45;;
66487;SDS011;53304;54.550;18.526;2023-05-29T11:55:22;4.05;;;1.42;;
66487;SDS011;53304;54.550;18.526;2023-05-29T11:57:51;4.97;;;1.33;;
66487;SDS011;53304;54.550;18.526;2023-05-29T12:00:23;4.63;;;1.10;;
66487;SDS011;53304;54.550;18.526;2023-05-29T12:02:49;3.63;;;1.20;;
66487;SDS011;53304;54.550;18.526;2023-05-29T12:05:18;5.63;;;1.35;;
66487;SDS011;53304;54.550;18.526;2023-05-29T12:07:47;4.93;;;1.20;;
66487;SDS011;53304;54.550;18.526;2023-05-29T12:10:15;4.20;;;1.30;;
66487;SDS011;53304;54.550;18.526;2023-05-29T12:12:41;5.38;;;1.10;;
66487;SDS011;53304;54.550;18.526;2023-05-29T12:15:07;9.15;;;1.50;;
66487;SDS011;53304;54.550;18.526;2023-05-29T12:17:38;6.88;;;1.75;;
66487;SDS011;53304;54.550;18.526;2023-05-29T12:20:05;9.82;;;1.80;;
66487;SDS011;53304;54.550;18.526;2023-05-29T12:22:35;6.05;;;1.30;;
66487;SDS011;53304;54.550;18.526;2023-05-29T12:25:07;4.72;;;1.08;;
66487;SDS011;53304;54.550;18.526;2023-05-29T12:27:44;4.95;;;1.30;;
66487;SDS011;53304;54.550;18.526;2023-05-29T12:32:40;7.85;;;1.23;;
66487;SDS011;53304;54.550;18.526;2023-05-29T12:37:43;3.40;;;1.23;;
66487;SDS011;53304;54.550;18.526;2023-05-29T12:40:21;6.70;;;1.33;;
66487;SDS011;53304;54.550;18.526;2023-05-29T12:43:00;5.80;;;1.70;;
66487;SDS011;53304;54.550;18.526;2023-05-29T12:45:29;7.00;;;1.60;;
66487;SDS011;53304;54.550;18.526;2023-05-29T12:47:56;6.97;;;1.48;;
66487;SDS011;53304;54.550;18.526;2023-05-29T12:50:30;3.58;;;1.27;;
66487;SDS011;53304;54.550;18.526;2023-05-29T12:53:09;5.25;;;1.40;;
66487;SDS011;53304;54.550;18.526;2023-05-29T12:55:42;5.80;;;1.40;;
66487;SDS011;53304;54.550;18.526;2023-05-29T12:58:09;2.50;;;1.38;;
66487;SDS011;53304;54.550;18.526;2023-05-29T13:00:36;9.45;;;1.85;;
66487;SDS011;53304;54.550;18.526;2023-05-29T13:03:03;11.95;;;2.10;;
66487;SDS011;53304;54.550;18.526;2023-05-29T13:05:32;12.85;;;2.17;;
66487;SDS011;53304;54.550;18.526;2023-05-29T13:07:58;11.68;;;2.50;;
66487;SDS011;53304;54.550;18.526;2023-05-29T13:10:25;11.35;;;3.08;;
66487;SDS011;53304;54.550;18.526;2023-05-29T13:12:52;13.63;;;2.40;;
66487;SDS011;53304;54.550;18.526;2023-05-29T13:15:20;11.25;;;2.08;;
66487;SDS011;53304;54.550;18.526;2023-05-29T13:17:48;14.70;;;2.55;;
66487;SDS011;53304;54.550;18.526;2023-05-29T13:20:14;15.38;;;2.08;;
66487;SDS011;53304;54.550;18.526;2023-05-29T13:22:40;10.68;;;1.90;;
66487;SDS011;53304;54.550;18.526;2023-05-29T13:25:08;9.63;;;1.80;;
66487;SDS011;53304;54.550;18.526;2023-05-29T13:27:38;15.60;;;2.30;;
66487;SDS011;53304;54.550;18.526;2023-05-29T13:30:06;5.85;;;1.48;;
66487;SDS011;53304;54.550;18.526;2023-05-29T13:32:32;6.75;;;1.80;;
66487;SDS011;53304;54.550;18.526;2023-05-29T13:34:57;7.20;;;1.60;;
66487;SDS011;53304;54.550;18.526;2023-05-29T13:37:25;6.55;;;1.80;;
66487;SDS011;53304;54.550;18.526;2023-05-29T13:39:56;4.38;;;1.50;;
66487;SDS011;53304;54.550;18.526;2023-05-29T13:42:21;8.75;;;1.80;;
66487;SDS011;53304;54.550;18.526;2023-05-29T13:44:47;8.85;;;2.05;;
66487;SDS011;53304;54.550;18.526;2023-05-29T13:47:13;5.47;;;1.35;;
66487;SDS011;53304;54.550;18.526;2023-05-29T13:49:41;5.10;;;1.48;;
66487;SDS011;53304;54.550;18.526;2023-05-29T13:52:09;6.85;;;1.80;;
66487;SDS011;53304;54.550;18.526;2023-05-29T13:54:36;9.10;;;1.85;;
66487;SDS011;53304;54.550;18.526;2023-05-29T13:57:02;8.27;;;1.70;;
66487;SDS011;53304;54.550;18.526;2023-05-29T13:59:31;7.68;;;1.90;;
66487;SDS011;53304;54.550;18.526;2023-05-29T14:01:57;7.60;;;1.90;;
66487;SDS011;53304;54.550;18.526;2023-05-29T14:04:23;4.38;;;1.48;;
66487;SDS011;53304;54.550;18.526;2023-05-29T14:06:48;7.97;;;1.50;;
66487;SDS011;53304;54.550;18.526;2023-05-29T14:09:18;4.65;;;1.60;;
66487;SDS011;53304;54.550;18.526;2023-05-29T14:11:52;6.38;;;1.63;;
66487;SDS011;53304;54.550;18.526;2023-05-29T14:14:18;7.35;;;1.40;;
66487;SDS011;53304;54.550;18.526;2023-05-29T14:16:46;5.55;;;1.50;;
66487;SDS011;53304;54.550;18.526;2023-05-29T14:19:11;11.70;;;1.60;;
66487;SDS011;53304;54.550;18.526;2023-05-29T14:21:37;3.97;;;1.48;;
66487;SDS011;53304;54.550;18.526;2023-05-29T14:24:04;6.15;;;1.75;;
66487;SDS011;53304;54.550;18.526;2023-05-29T14:26:30;5.85;;;1.40;;
66487;SDS011;53304;54.550;18.526;2023-05-29T14:28:55;4.57;;;1.55;;
66487;SDS011;53304;54.550;18.526;2023-05-29T14:31:23;7.88;;;1.38;;
66487;SDS011;53304;54.550;18.526;2023-05-29T14:33:48;8.15;;;2.08;;
66487;SDS011;53304;54.550;18.526;2023-05-29T14:36:14;7.47;;;1.95;;
66487;SDS011;53304;54.550;18.526;2023-05-29T14:38:39;7.50;;;1.85;;
66487;SDS011;53304;54.550;18.526;2023-05-29T14:41:08;4.47;;;1.27;;
66487;SDS011;53304;54.550;18.526;2023-05-29T14:43:37;5.82;;;1.58;;
66487;SDS011;53304;54.550;18.526;2023-05-29T14:46:03;7.82;;;1.70;;
66487;SDS011;53304;54.550;18.526;2023-05-29T14:48:31;4.13;;;1.13;;
66487;SDS011;53304;54.550;18.526;2023-05-29T14:51:01;3.55;;;1.45;;
66487;SDS011;53304;54.550;18.526;2023-05-29T14:53:31;7.15;;;1.45;;
66487;SDS011;53304;54.550;18.526;2023-05-29T14:55:57;4.80;;;1.83;;
66487;SDS011;53304;54.550;18.526;2023-05-29T14:58:25;5.38;;;1.35;;
66487;SDS011;53304;54.550;18.526;2023-05-29T15:00:53;5.18;;;1.25;;
66487;SDS011;53304;54.550;18.526;2023-05-29T15:03:22;6.03;;;1.42;;
66487;SDS011;53304;54.550;18.526;2023-05-29T15:05:51;5.22;;;1.23;;
66487;SDS011;53304;54.550;18.526;2023-05-29T15:08:20;5.40;;;1.65;;
66487;SDS011;53304;54.550;18.526;2023-05-29T15:10:48;4.15;;;1.20;;